Flight Track Log - Related Links

Times and Time Zones

All times are in EDT time to prevent confusion due to time zone crossing. See the N173AA flight status page for this flight to view local times or setup timezone preferences in your user account.

Time Position Orientation Groundspeed Altitude Reporting Facility
EDT Latitude Longitude Course Direction KTS MPH feet Rate Location/Type
Fri 01:39:38 AM 30.0817 -95.5561 15° North 144 166 800  Level Houston Center
Fri 01:40:16 AM 30.1058 -95.5486 15° North 177 204 1,600 1,814 Climbing Houston Center
Fri 01:40:21 AM 30.1161 -95.5422 28° Northeast 175 201 2,100 2,000 Climbing Houston Center
Fri 01:41:16 AM 30.1442 -95.5114 44° Northeast 179 206 3,600 1,900 Climbing Houston Center
Fri 01:41:21 AM 30.1478 -95.4975 73° East 186 214 4,000 1,900 Climbing Houston Center
Fri 01:42:16 AM 30.1419 -95.4494 98° East 197 227 5,500 1,707 Climbing Houston Center
Fri 01:43:17 AM 30.1319 -95.3875 101° East 197 227 7,300 1,835 Climbing Houston Center
Fri 01:44:17 AM 30.1228 -95.3200 99° East 209 241 9,200 1,700 Climbing Houston Center
Fri 01:45:17 AM 30.1108 -95.2497 101° East 221 254 10,700 1,400 Climbing Houston Center
Fri 01:46:17 AM 30.0983 -95.1728 101° East 240 276 12,000 1,250 Climbing Houston Center
Fri 01:47:17 AM 30.0894 -95.0889 97° East 259 298 13,200 1,270 Climbing Houston Center
Fri 01:49:00 AM 30.1665 -94.8985 65° Northeast  Level Estimated
Fri 01:50:18 AM 30.0653 -94.8233 65° Northeast 280 322 17,100  Level Houston Center
Fri 01:52:00 AM 30.1424 -94.6353 65° Northeast  Level Estimated
Fri 01:54:18 AM 30.1747 -94.4861 65° Northeast 293 337 21,900  Level Houston Center
Fri 01:55:18 AM 30.2103 -94.3969 65° Northeast 303 349 22,800 950 Climbing Houston Center
Fri 01:56:18 AM 30.2503 -94.3081 62° Northeast 310 357 23,800 992 Climbing Houston Center
Fri 01:57:19 AM 30.2900 -94.2175 63° Northeast 314 361 24,800 942 Climbing Houston Center
Fri 01:58:19 AM 30.3297 -94.1253 63° Northeast 319 367 25,700 900 Climbing Houston Center
Fri 01:59:00 AM 30.4573 -93.8580 65° Northeast  Level Estimated
Fri 01:59:19 AM 30.3683 -94.0328 64° Northeast 318 366 26,600  Level Houston Center
Fri 02:00:19 AM 30.4056 -93.9406 65° Northeast 317 365 27,600 950 Climbing Houston Center
Fri 02:01:19 AM 30.4414 -93.8483 66° East 313 360 28,500 950 Climbing Houston Center
Fri 02:02:19 AM 30.4758 -93.7553 67° East 313 360 29,500 950 Climbing Houston Center
Fri 02:03:19 AM 30.5114 -93.6644 66° East 308 354 30,400 744 Climbing Houston Center
Fri 02:04:20 AM 30.5481 -93.5736 65° Northeast 307 353 31,000 298 Climbing Houston Center
Fri 02:05:20 AM 30.5850 -93.4769 66° East 321 369 31,000  Level Houston Center
Fri 02:06:20 AM 30.6256 -93.3736 65° Northeast 344 396 31,000  Level Houston Center
Fri 02:07:20 AM 30.6697 -93.2667 64° Northeast 363 418 31,000  Level Houston Center
Fri 02:08:20 AM 30.7147 -93.1578 64° Northeast 374 430 31,000  Level Houston Center
Fri 02:09:20 AM 30.7600 -93.0456 65° Northeast 381 438 31,000  Level Houston Center
Fri 02:10:20 AM 30.8000 -92.9411 66° East 382 440 31,000  Level Houston Center
Fri 02:11:20 AM 30.8436 -92.8264 66° East 388 447 31,000  Level Houston Center
Fri 02:12:21 AM 30.8894 -92.7117 65° Northeast 392 451 31,000  Level Houston Center
Fri 02:13:21 AM 30.9342 -92.5983 65° Northeast 389 448 31,000  Level Houston Center
Fri 02:14:21 AM 30.9775 -92.4853 66° East 388 447 31,000  Level Houston Center
Fri 02:15:21 AM 31.0261 -92.3581 66° East 391 450 31,000  Level Houston Center
Fri 02:16:21 AM 31.0700 -92.2422 66° East 392 451 31,000  Level Houston Center
Fri 02:17:22 AM 31.1142 -92.1261 66° East 392 451 31,000  Level Houston Center
Fri 02:18:21 AM 31.1522 -92.0264 66° East 392 451 31,000  Level Houston Center
Fri 02:19:22 AM 31.1972 -91.9103 66° East 394 453 31,000  Level Houston Center
Fri 02:20:22 AM 31.2425 -91.7944 65° Northeast 394 453 31,000  Level Houston Center
Fri 02:21:22 AM 31.2872 -91.6786 66° East 393 452 31,000 150 Level Houston Center
Fri 02:22:22 AM 31.3311 -91.5617 66° East 395 455 31,300 750 Climbing Houston Center
Fri 02:23:22 AM 31.3719 -91.4533 66° East 367 422 32,500 1,000 Climbing Houston Center
Fri 02:24:22 AM 31.4106 -91.3500 66° East 350 403 33,300 650 Climbing Houston Center
Fri 02:25:22 AM 31.4486 -91.2486 66° East 343 395 33,800 645 Climbing Houston Center
Fri 02:26:23 AM 31.4844 -91.1481 67° East 336 387 34,600 595 Climbing Houston Center
Fri 02:27:23 AM 31.5278 -91.0328 66° East 331 381 35,000 200 Climbing Houston Center
Fri 02:28:23 AM 31.5650 -90.9297 67° East 340 391 35,000  Level Houston Center
Fri 02:29:23 AM 31.6056 -90.8211 66° East 359 413 35,000  Level Houston Center
Fri 02:30:23 AM 31.6453 -90.7136 67° East 360 414 35,000 -200 Level Houston Center
Fri 02:31:23 AM 31.6853 -90.6100 66° East 351 404 34,600 -700 Descending Houston Center
Fri 02:32:23 AM 31.7236 -90.5014 67° East 359 413 33,600 -1,289 Descending Houston Center
Fri 02:33:24 AM 31.7636 -90.3881 67° East 372 428 32,000 -1,736 Descending Houston Center
Fri 02:34:24 AM 31.8350 -90.2972 47° Northeast 374 430 30,100 -2,350 Descending Houston Center
Fri 02:35:24 AM 31.9136 -90.2225 39° Northeast 364 419 27,300 -2,700 Descending Houston Center
Fri 02:36:24 AM 31.9953 -90.1536 36° Northeast 361 415 24,700 -2,600 Descending Houston Center
Fri 02:37:24 AM 32.0747 -90.0953 32° Northeast 348 400 22,100 -2,800 Descending Houston Center
Fri 02:38:24 AM 32.1583 -90.0453 27° Northeast 340 391 19,100 -2,800 Descending Houston Center
Fri 02:39:24 AM 32.2400 -90.0639 349° North 303 349 16,500 -2,350 Descending Houston Center
Fri 02:40:24 AM 32.2531 -90.1475 280° West 276 318 14,400 -2,281 Descending Houston Center
Fri 02:41:25 AM 32.1836 -90.1819 203° Southwest 305 351 11,900 -2,678 Descending Houston Center
Fri 02:42:25 AM 32.1236 -90.1147 136° Southeast 309 356 9,000 -2,426 Descending Houston Center
Fri 02:43:46 AM 32.1494 -89.9992 75° East 200 230 6,200 -2,170 Descending Memphis Center
Fri 02:44:46 AM 32.2100 -90.0111 351° North 139 160 3,900 -2,100 Descending Memphis Center
Fri 02:45:46 AM 32.2581 -90.0428 331° Northwest 147 169 2,000 -1,500 Descending Memphis Center
Fri 02:46:46 AM 32.3061 -90.0600 343° North 168 193 900 500 Descending Memphis Center
Fri 02:47:46 AM 32.3481 -90.0794 339° North 168 193 3,000 1,050 Climbing Memphis Center
Fri 02:48:46 AM 32.3897 -90.0967 341° North 168 193 3,000  Level Memphis Center
Fri 02:49:46 AM 32.4317 -90.1161 339° North 168 193 3,000  Level Memphis Center
Fri 02:50:46 AM 32.4650 -90.1308 340° North 168 193 3,000  Level Memphis Center
Fri 02:52:46 AM 32.4650 -90.1308 270° West 168 193 3,000  Level Memphis Center
Fri 02:54:46 AM 32.4650 -90.1308 270° West 168 193 3,000  Level Memphis Center
Fri 02:56:46 AM 32.4650 -90.1308 270° West 168 193 3,000  Level Memphis Center
Fri 02:58:46 AM 32.4650 -90.1308 270° West 168 193 3,000  Level Memphis Center
Fri 03:00:46 AM 32.4650 -90.1308 270° West 168 193 3,000  Level Memphis Center
Fri 03:02:46 AM 32.4650 -90.1308 270° West 168 193 3,000  Level Memphis Center
Fri 03:04:46 AM 32.4650 -90.1308 270° West 168 193 3,000  Level Memphis Center
Fri 03:06:46 AM 32.4650 -90.1308 270° West 168 193 3,000  Level Memphis Center
Fri 03:08:46 AM 32.4650 -90.1308 270° West 168 193 3,000  Level Memphis Center
Fri 03:10:46 AM 32.4650 -90.1308 270° West 168 193 3,000  Level Memphis Center
Fri 03:12:46 AM 32.4650 -90.1308 270° West 168 193 3,000  Level Memphis Center
Fri 03:14:46 AM 32.4650 -90.1308 270° West 168 193 3,000  Level Memphis Center
Fri 03:16:46 AM 32.4650 -90.1308 270° West 168 193 3,000  Level Memphis Center
Fri 03:18:46 AM 32.4650 -90.1308 270° West 168 193 3,000  Level Memphis Center
Fri 03:20:46 AM 32.4650 -90.1308 270° West 168 193 3,000  Level Memphis Center
Fri 03:22:46 AM 32.4650 -90.1308 270° West 168 193 3,000  Level Memphis Center
Fri 03:24:46 AM 32.4650 -90.1308 270° West 168 193 3,000  Level Memphis Center
Fri 03:26:00 AM 32.4804 -89.9941 82° East  Level FlightAware Approximate
Fri 03:33:00 AM 32.7072 -89.2577 70° East  Level Estimated
Fri 03:34:00 AM 32.7393 -89.1522 70° East  Level Estimated
Fri 03:35:00 AM 32.7668 -89.0448 73° East  Level FlightAware Approximate
Fri 03:36:00 AM 32.7943 -88.9374 73° East  Level FlightAware Approximate
Fri 03:37:00 AM 32.8216 -88.8300 73° East  Level FlightAware Approximate
Fri 03:38:00 AM 32.8489 -88.7225 73° East  Level FlightAware Approximate
Fri 03:39:00 AM 32.8760 -88.6149 73° East  Level FlightAware Approximate
Fri 03:40:00 AM 32.9031 -88.5072 73° East  Level FlightAware Approximate
Fri 03:41:00 AM 32.9301 -88.3995 73° East  Level FlightAware Approximate
Fri 03:42:00 AM 32.9570 -88.2917 73° East  Level FlightAware Approximate
Fri 03:43:00 AM 32.9838 -88.1838 73° East  Level FlightAware Approximate
Fri 03:44:00 AM 33.0105 -88.0759 74° East  Level FlightAware Approximate
Fri 03:45:00 AM 33.0420 -87.9698 71° East  Level Estimated
Fri 03:46:00 AM 33.0730 -87.8635 71° East  Level FlightAware Approximate
Fri 03:47:00 AM 33.1040 -87.7571 71° East  Level FlightAware Approximate
Fri 03:48:00 AM 33.1348 -87.6506 71° East  Level FlightAware Approximate
Fri 03:49:00 AM 33.1656 -87.5440 71° East  Level FlightAware Approximate
Fri 03:50:00 AM 33.1963 -87.4374 71° East  Level FlightAware Approximate
Fri 03:51:00 AM 33.2268 -87.3307 71° East  Level FlightAware Approximate
Fri 03:52:00 AM 33.2573 -87.2239 71° East  Level FlightAware Approximate
Fri 03:53:00 AM 33.2877 -87.1170 71° East  Level FlightAware Approximate
Fri 03:54:00 AM 33.3180 -87.0101 71° East  Level FlightAware Approximate
Fri 03:55:00 AM 33.3482 -86.9031 71° East  Level FlightAware Approximate
Fri 03:56:00 AM 33.3784 -86.7960 71° East  Level FlightAware Approximate
Fri 03:57:00 AM 33.4084 -86.6889 71° East  Level FlightAware Approximate
Fri 03:58:00 AM 33.4383 -86.5816 71° East  Level FlightAware Approximate
Fri 03:59:00 AM 33.4682 -86.4743 72° East  Level FlightAware Approximate
Fri 04:00:00 AM 33.4979 -86.3669 72° East  Level FlightAware Approximate
Fri 04:01:00 AM 33.5276 -86.2595 72° East  Level FlightAware Approximate
Fri 04:02:00 AM 33.5571 -86.1520 72° East  Level FlightAware Approximate
Fri 04:03:00 AM 33.5866 -86.0444 72° East  Level FlightAware Approximate
Fri 04:04:00 AM 33.6160 -85.9367 72° East  Level FlightAware Approximate
Fri 04:05:00 AM 33.6453 -85.8289 72° East  Level FlightAware Approximate
Fri 04:06:00 AM 33.6750 -85.7213 72° East  Level Estimated
Fri 04:07:00 AM 33.7037 -85.6133 72° East  Level FlightAware Approximate
Fri 04:08:00 AM 33.7322 -85.5051 72° East  Level FlightAware Approximate
Fri 04:09:00 AM 33.7607 -85.3969 72° East  Level FlightAware Approximate
Fri 04:10:00 AM 33.7891 -85.2887 72° East  Level FlightAware Approximate
Fri 04:11:00 AM 33.8184 -85.1807 72° East  Level Estimated
Fri 04:12:00 AM 33.8474 -85.0726 72° East  Level FlightAware Approximate
Fri 04:13:00 AM 33.8763 -84.9644 72° East  Level FlightAware Approximate
Fri 04:14:00 AM 33.9050 -84.8561 72° East  Level FlightAware Approximate
Fri 04:15:00 AM 33.9337 -84.7478 72° East  Level FlightAware Approximate
Fri 04:16:00 AM 33.9623 -84.6394 72° East  Level FlightAware Approximate
Fri 04:17:00 AM 33.9908 -84.5309 72° East  Level FlightAware Approximate
Fri 04:18:00 AM 34.0192 -84.4223 72° East  Level FlightAware Approximate
Fri 04:19:00 AM 34.0475 -84.3137 73° East  Level FlightAware Approximate
Fri 04:20:00 AM 34.0757 -84.2050 73° East  Level FlightAware Approximate
Fri 04:21:00 AM 34.1039 -84.0962 73° East  Level FlightAware Approximate
Fri 04:22:00 AM 34.1319 -83.9874 73° East  Level FlightAware Approximate
Fri 04:23:00 AM 34.1600 -83.8785 72° East  Level Estimated
Fri 04:24:00 AM 34.1890 -83.7700 72° East  Level FlightAware Approximate
Fri 04:25:00 AM 34.2179 -83.6613 72° East  Level FlightAware Approximate
Fri 04:26:00 AM 34.2467 -83.5526 72° East  Level FlightAware Approximate
Fri 04:27:00 AM 34.2753 -83.4438 72° East  Level FlightAware Approximate
Fri 04:28:00 AM 34.3030 -83.3346 73° East  Level Estimated
Fri 04:29:00 AM 34.3305 -83.2253 72° East  Level Estimated
Fri 04:30:00 AM 34.3594 -83.1165 72° East  Level FlightAware Approximate
Fri 04:31:00 AM 34.3883 -83.0077 72° East  Level FlightAware Approximate
Fri 04:32:00 AM 34.4154 -82.8981 74° East  Level Estimated
Fri 04:33:00 AM 34.4421 -82.7884 74° East  Level FlightAware Approximate
Fri 04:34:00 AM 34.4686 -82.6785 74° East  Level FlightAware Approximate
Fri 04:35:00 AM 34.4950 -82.5686 74° East  Level FlightAware Approximate
Fri 04:36:00 AM 34.5214 -82.4586 74° East  Level FlightAware Approximate
Fri 04:37:00 AM 34.5476 -82.3486 74° East  Level FlightAware Approximate
Fri 04:38:00 AM 34.5738 -82.2385 74° East  Level FlightAware Approximate
Fri 04:39:00 AM 34.5998 -82.1283 74° East  Level FlightAware Approximate
Fri 04:40:00 AM 34.6258 -82.0181 74° East  Level FlightAware Approximate
Fri 04:41:00 AM 34.6516 -81.9078 74° East  Level FlightAware Approximate
Fri 04:42:00 AM 34.6774 -81.7974 74° East  Level FlightAware Approximate
Fri 04:43:00 AM 34.7030 -81.6869 74° East  Level FlightAware Approximate
Fri 04:44:00 AM 34.7286 -81.5764 74° East  Level FlightAware Approximate
Fri 04:45:00 AM 34.7546 -81.4660 74° East  Level Estimated
Fri 04:46:00 AM 34.7801 -81.3554 74° East  Level FlightAware Approximate
Fri 04:47:00 AM 34.8055 -81.2447 74° East  Level FlightAware Approximate
Fri 04:48:00 AM 34.8308 -81.1340 74° East  Level FlightAware Approximate
Fri 04:49:00 AM 34.8560 -81.0232 74° East  Level FlightAware Approximate
Fri 04:50:00 AM 34.8811 -80.9123 75° East  Level FlightAware Approximate
Fri 04:51:00 AM 34.9061 -80.8014 75° East  Level FlightAware Approximate
Fri 04:52:00 AM 34.9310 -80.6904 75° East  Level FlightAware Approximate
Fri 04:53:00 AM 34.9558 -80.5793 75° East  Level FlightAware Approximate
Fri 04:54:00 AM 34.9805 -80.4681 75° East  Level FlightAware Approximate
Fri 04:55:00 AM 35.0051 -80.3569 75° East  Level FlightAware Approximate
Fri 04:56:00 AM 35.0297 -80.2457 75° East  Level FlightAware Approximate
Fri 04:57:00 AM 35.0541 -80.1343 75° East  Level FlightAware Approximate
Fri 04:58:00 AM 35.0784 -80.0229 75° East  Level FlightAware Approximate
Fri 04:59:00 AM 35.1032 -79.9116 75° East  Level Estimated
Fri 05:00:00 AM 35.1270 -79.8000 75° East  Level FlightAware Approximate
Fri 05:01:00 AM 35.1508 -79.6883 75° East  Level FlightAware Approximate
Fri 05:02:00 AM 35.1745 -79.5766 75° East  Level FlightAware Approximate
Fri 05:03:00 AM 35.1981 -79.4648 75° East  Level FlightAware Approximate
Fri 05:04:00 AM 35.2216 -79.3529 76° East  Level FlightAware Approximate
Fri 05:05:00 AM 35.2450 -79.2410 76° East  Level FlightAware Approximate
Fri 05:06:00 AM 35.2682 -79.1290 76° East  Level FlightAware Approximate
Fri 05:07:00 AM 35.2914 -79.0169 76° East  Level FlightAware Approximate
Fri 05:08:00 AM 35.3145 -78.9048 76° East  Level FlightAware Approximate
Fri 05:09:00 AM 35.3374 -78.7926 76° East  Level FlightAware Approximate
Fri 05:10:00 AM 35.3603 -78.6804 76° East  Level FlightAware Approximate
Fri 05:11:00 AM 35.3847 -78.5685 76° East  Level Estimated
Fri 05:12:00 AM 35.4065 -78.4559 77° East  Level FlightAware Approximate
Fri 05:13:00 AM 35.4282 -78.3432 77° East  Level FlightAware Approximate
Fri 05:14:00 AM 35.4528 -78.2314 76° East  Level Estimated
Fri 05:15:00 AM 35.4752 -78.1188 76° East  Level FlightAware Approximate
Fri 05:16:00 AM 35.4975 -78.0062 76° East  Level FlightAware Approximate
Fri 05:17:00 AM 35.5197 -77.8935 76° East  Level FlightAware Approximate
Fri 05:18:00 AM 35.5417 -77.7808 76° East  Level FlightAware Approximate
Fri 05:19:00 AM 35.5637 -77.6680 77° East  Level FlightAware Approximate

Login

Don't have an account? Register now (free) for customized features, flight alerts, and more!